Orbital elements of ORBCOMM FM23
| Launched | 22 September 1998 |
| Flight ended | – |
| Launch site | Eastern Range Airspace |
| Owner | ORBCOMM |
| NORAD ID | 25477 |
| Alternative names |
SLOT C3 |
| Date fetched |
Epoch osculation |
Inc. [°] |
Ecc. | RA asc node [hr] |
Arg Peri. [°] |
Mean anom [°] |
Mean motion [rev/day] |
Abs. mag |
| Date fetched |
Epoch osculation |
Inc. [°] |
Ecc. | RA asc node [hr] |
Arg Peri. [°] |
Mean anom [°] |
Mean motion [rev/day] |
Abs. mag |
| 2026 May 03 17:57 | 2026 Apr 30 14:17:27 | 45.0074 | 0.00015 | 13.8005 | 310.1818 | 49.8898 | 14.38386 | 9.243 |
| 2026 May 02 17:57 | 2026 Apr 30 14:17:27 | 45.0074 | 0.00015 | 13.8005 | 310.1818 | 49.8898 | 14.38386 | 9.243 |
| 2026 May 01 17:56 | 2026 Apr 30 14:17:27 | 45.0074 | 0.00015 | 13.8005 | 310.1818 | 49.8898 | 14.38386 | 9.243 |
| 2026 Apr 30 17:56 | 2026 Apr 30 14:17:27 | 45.0074 | 0.00015 | 13.8005 | 310.1818 | 49.8898 | 14.38386 | 9.243 |
| 2026 Apr 29 17:57 | 2026 Apr 24 08:16:03 | 45.0077 | 0.00017 | 15.7773 | 296.8469 | 49.8898 | 14.38386 | 9.243 |
| 2026 Apr 28 17:56 | 2026 Apr 24 08:16:03 | 45.0077 | 0.00017 | 15.7773 | 296.8469 | 49.8898 | 14.38386 | 9.243 |
| 2026 Apr 27 17:58 | 2026 Apr 24 08:16:03 | 45.0077 | 0.00017 | 15.7773 | 296.8469 | 49.8898 | 14.38386 | 9.243 |
| 2026 Apr 26 17:58 | 2026 Apr 24 08:16:03 | 45.0077 | 0.00017 | 15.7773 | 296.8469 | 49.8898 | 14.38386 | 9.243 |
| 2026 Apr 25 17:58 | 2026 Apr 24 08:16:03 | 45.0077 | 0.00017 | 15.7773 | 296.8469 | 49.8898 | 14.38386 | 9.243 |
| 2026 Apr 24 17:59 | 2026 Apr 24 08:16:03 | 45.0077 | 0.00017 | 15.7773 | 296.8469 | 49.8898 | 14.38386 | 9.243 |
| 2026 Apr 23 17:57 | 2026 Apr 19 03:14:50 | 45.0078 | 0.00018 | 17.4247 | 287.0039 | 49.8898 | 14.38386 | 9.243 |
| 2026 Apr 22 17:57 | 2026 Apr 19 03:14:50 | 45.0078 | 0.00018 | 17.4247 | 287.0039 | 49.8898 | 14.38386 | 9.243 |
| 2026 Apr 21 17:57 | 2026 Apr 19 03:14:50 | 45.0078 | 0.00018 | 17.4247 | 287.0039 | 49.8898 | 14.38386 | 9.243 |
| 2026 Apr 20 17:57 | 2026 Apr 19 03:14:50 | 45.0078 | 0.00018 | 17.4247 | 287.0039 | 49.8898 | 14.38386 | 9.243 |
| 2026 Apr 19 17:58 | 2026 Apr 19 03:14:50 | 45.0078 | 0.00018 | 17.4247 | 287.0039 | 49.8898 | 14.38386 | 9.243 |
| 2026 Apr 18 17:56 | 2026 Apr 14 13:13:43 | 45.0081 | 0.00018 | 18.8743 | 278.2570 | 49.8898 | 14.38386 | 9.243 |
| 2026 Apr 16 17:57 | 2026 Apr 14 13:13:43 | 45.0081 | 0.00018 | 18.8743 | 278.2570 | 49.8898 | 14.38386 | 9.243 |
| 2026 Apr 14 17:57 | 2026 Apr 14 13:13:43 | 45.0081 | 0.00018 | 18.8743 | 278.2570 | 49.8898 | 14.38386 | 9.243 |
| 2026 Apr 13 17:57 | 2026 Apr 13 05:33:24 | 45.0082 | 0.00018 | 19.2917 | 275.8221 | 49.8898 | 14.38386 | 9.243 |
| 2026 Apr 12 17:57 | 2026 Apr 12 11:13:12 | 45.0082 | 0.00018 | 19.5333 | 274.5436 | 49.8898 | 14.38386 | 9.243 |
| 2026 Apr 11 17:57 | 2026 Apr 11 13:32:59 | 45.0083 | 0.00018 | 19.8188 | 272.9960 | 49.8898 | 14.38386 | 9.243 |
| 2026 Apr 10 17:58 | 2026 Apr 08 23:52:20 | 45.0086 | 0.00018 | 20.6315 | 268.0226 | 49.8898 | 14.38386 | 9.243 |
| 2026 Apr 09 18:01 | 2026 Apr 08 23:52:20 | 45.0086 | 0.00018 | 20.6315 | 268.0226 | 49.8898 | 14.38386 | 9.243 |
| 2026 Apr 08 17:57 | 2026 Apr 08 07:12:10 | 45.0088 | 0.00018 | 20.8511 | 266.7384 | 49.8898 | 14.38386 | 9.243 |
| 2026 Apr 07 17:57 | 2026 Apr 06 23:31:50 | 45.0089 | 0.00018 | 21.2684 | 264.1697 | 49.8898 | 14.38386 | 9.243 |
| 2026 Apr 06 17:57 | 2026 Apr 06 00:11:34 | 45.0092 | 0.00018 | 21.5759 | 261.9246 | 49.8898 | 14.38386 | 9.243 |